Time;durP1;ratioP1;P1;durP2;ratioP2;P2;SDS_P1;SDS_P2;PMS_P1;PMS_P2;Temp;Humidity;BMP_temperature;BMP_pressure;BME280_temperature;BME280_humidity;BME280_pressure;Samples;Min_cycle;Max_cycle;Signal;HPM_P1;HPM_P2
2023/05/02 00:00:09;;;;;;;9.18;6.43;;;;;;;;;;6247576;22;20063;-96
2023/05/02 00:05:49;;;;;;;13.10;7.20;;;;;;;;;;6263698;23;20034;-95
2023/05/02 00:08:47;;;;;;;10.88;6.78;;;;;;;;;;6231692;23;20019;-95
2023/05/02 00:11:13;;;;;;;12.13;7.25;;;;;;;;;;6204121;23;20521;-96
2023/05/02 00:14:13;;;;;;;9.65;6.85;;;;;;;;;;6258959;23;20004;-95
2023/05/02 00:17:20;;;;;;;11.60;7.68;;;;;;;;;;6254882;23;20056;-96
2023/05/02 00:34:52;;;;;;;11.70;7.63;;;;;;;;;;6208604;23;20013;-94
2023/05/02 00:37:52;;;;;;;30.95;15.48;;;;;;;;;;6193750;23;20024;-96
2023/05/02 00:40:18;;;;;;;29.42;14.45;;;;;;;;;;6198270;23;20015;-94
2023/05/02 00:45:34;;;;;;;26.17;12.55;;;;;;;;;;6200504;23;20030;-96
2023/05/02 00:48:24;;;;;;;24.60;12.02;;;;;;;;;;6197329;23;20009;-96
2023/05/02 00:51:33;;;;;;;25.77;12.85;;;;;;;;;;6179221;23;20037;-94
2023/05/02 01:00:09;;;;;;;24.52;13.00;;;;;;;;;;6198567;23;20044;-96
2023/05/02 01:02:55;;;;;;;25.08;15.18;;;;;;;;;;6194992;23;20017;-95
2023/05/02 01:05:27;;;;;;;25.63;14.05;;;;;;;;;;6195428;23;20075;-96
2023/05/02 01:08:15;;;;;;;23.67;13.48;;;;;;;;;;6194356;23;20061;-96
2023/05/02 01:11:05;;;;;;;20.75;11.98;;;;;;;;;;6195990;23;20062;-95
2023/05/02 01:16:22;;;;;;;21.65;11.52;;;;;;;;;;6183105;23;20019;-94
2023/05/02 01:22:03;;;;;;;21.55;11.95;;;;;;;;;;6133435;23;20061;-94
2023/05/02 01:25:00;;;;;;;22.95;12.60;;;;;;;;;;6109470;23;20106;-96
2023/05/02 01:31:33;;;;;;;;;;;;;;;;;;;;;
2023/05/02 01:40:39;;;;;;;21.02;9.95;;;;;;;;;;6212932;23;20008;-96
2023/05/02 01:43:16;;;;;;;13.10;8.95;;;;;;;;;;6253859;23;20008;-96
2023/05/02 01:45:44;;;;;;;15.57;9.35;;;;;;;;;;6236885;23;20006;-95
2023/05/02 01:48:10;;;;;;;15.15;10.00;;;;;;;;;;6232403;23;20012;-95
2023/05/02 01:50:37;;;;;;;14.65;9.40;;;;;;;;;;6232377;23;20015;-96
2023/05/02 01:53:26;;;;;;;;;;;;;;;;;;;;;
2023/05/02 01:55:53;;;;;;;14.57;8.85;;;;;;;;;;6211490;23;20040;-95
2023/05/02 02:10:40;;;;;;;13.85;8.23;;;;;;;;;;6141780;23;20021;-96
2023/05/02 02:13:12;;;;;;;12.35;8.10;;;;;;;;;;6228734;23;20000;-96
2023/05/02 02:15:41;;;;;;;14.85;8.82;;;;;;;;;;6232901;23;20023;-95
2023/05/02 02:18:32;;;;;;;;;;;;;;;;;;;;;
2023/05/02 02:21:41;;;;;;;;;;;;;;;;;;;;;
2023/05/02 02:24:35;;;;;;;;;;;;;;;;;;;;;
2023/05/02 02:27:36;;;;;;;13.70;8.77;;;;;;;;;;6259876;23;20302;-95
2023/05/02 02:30:36;;;;;;;12.02;7.57;;;;;;;;;;6222163;23;20036;-95
2023/05/02 02:47:37;;;;;;;11.68;8.25;;;;;;;;;;6256698;22;20020;-95
2023/05/02 02:53:36;;;;;;;;;;;;;;;;;;;;;
2023/05/02 03:20:14;;;;;;;10.43;6.15;;;;;;;;;;6199967;23;20016;-96
2023/05/02 03:23:16;;;;;;;11.82;7.30;;;;;;;;;;6234900;23;20042;-96
2023/05/02 03:26:07;;;;;;;13.10;6.82;;;;;;;;;;6248308;23;20008;-96
2023/05/02 03:28:37;;;;;;;11.45;6.15;;;;;;;;;;6236220;23;20004;-95
2023/05/02 03:31:04;;;;;;;11.43;6.28;;;;;;;;;;6236963;23;20012;-96
2023/05/02 03:33:53;;;;;;;11.65;6.70;;;;;;;;;;6228934;23;20132;-95
2023/05/02 03:36:24;;;;;;;9.43;5.80;;;;;;;;;;6202952;23;20041;-96
2023/05/02 03:42:17;;;;;;;15.35;6.35;;;;;;;;;;6197139;23;20036;-95
2023/05/02 03:45:16;;;;;;;12.40;6.20;;;;;;;;;;6191264;23;20552;-96
2023/05/02 03:48:16;;;;;;;11.38;6.43;;;;;;;;;;6206963;23;20015;-96
2023/05/02 03:50:56;;;;;;;10.43;6.55;;;;;;;;;;6201613;23;20473;-96
2023/05/02 04:02:24;;;;;;;12.68;6.43;;;;;;;;;;6141852;23;20032;-96
2023/05/02 04:08:15;;;;;;;;;;;;;;;;;;;;;
2023/05/02 04:10:47;;;;;;;13.75;5.63;;;;;;;;;;6264589;23;19997;-95
2023/05/02 04:17:14;;;;;;;;;;;;;;;;;;;;;
2023/05/02 04:22:11;;;;;;;12.30;5.68;;;;;;;;;;6235447;23;20028;-95
2023/05/02 04:24:50;;;;;;;;;;;;;;;;;;;;;
2023/05/02 04:30:40;;;;;;;12.95;5.50;;;;;;;;;;6099905;23;20087;-95
2023/05/02 04:43:08;;;;;;;;;;;;;;;;;;;;;
2023/05/02 04:48:51;;;;;;;10.95;4.40;;;;;;;;;;6062197;23;20002;-96
2023/05/02 04:52:00;;;;;;;10.57;4.65;;;;;;;;;;6170400;23;20021;-96
2023/05/02 04:59:45;;;;;;;6.70;3.95;;;;;;;;;;6257970;22;20103;-96
2023/05/02 05:02:49;;;;;;;5.35;3.55;;;;;;;;;;6230870;23;20076;-96
2023/05/02 05:05:40;;;;;;;7.00;4.00;;;;;;;;;;6233463;23;20005;-96
2023/05/02 05:14:38;;;;;;;;;;;;;;;;;;;;;
2023/05/02 05:17:32;;;;;;;6.63;3.40;;;;;;;;;;6170345;23;20335;-96
2023/05/02 05:26:16;;;;;;;5.90;2.83;;;;;;;;;;6078169;23;20054;-94
2023/05/02 05:28:43;;;;;;;4.03;2.45;;;;;;;;;;6169538;23;20008;-94
2023/05/02 05:31:10;;;;;;;7.22;2.90;;;;;;;;;;6220680;23;20050;-95
2023/05/02 05:33:37;;;;;;;7.88;3.20;;;;;;;;;;6221178;23;20004;-93
2023/05/02 05:36:24;;;;;;;5.50;2.80;;;;;;;;;;6221723;23;20004;-94
2023/05/02 05:39:12;;;;;;;6.25;2.67;;;;;;;;;;6220837;23;20000;-95
2023/05/02 05:50:22;;;;;;;5.78;2.90;;;;;;;;;;6241638;22;20028;-93
2023/05/02 05:52:49;;;;;;;7.93;3.58;;;;;;;;;;6183651;23;20021;-94
2023/05/02 05:57:58;;;;;;;5.40;3.50;;;;;;;;;;6246843;22;20705;-96
2023/05/02 06:00:59;;;;;;;6.93;3.63;;;;;;;;;;6256052;22;20004;-96
2023/05/02 06:07:18;;;;;;;;;;;;;;;;;;;;;
2023/05/02 06:09:10;;;;;;;5.10;3.17;;;;;;;;;;6249872;22;20029;-95
2023/05/02 06:12:10;;;;;;;5.95;3.30;;;;;;;;;;6251810;22;20049;-93
2023/05/02 06:14:45;;;;;;;6.82;3.40;;;;;;;;;;6257048;22;20027;-95
2023/05/02 06:17:53;;;;;;;13.18;3.50;;;;;;;;;;6265497;22;20067;-96
2023/05/02 06:20:21;;;;;;;7.55;2.97;;;;;;;;;;6107637;22;20002;-95
2023/05/02 06:22:47;;;;;;;5.00;3.13;;;;;;;;;;6258254;22;20023;-96
2023/05/02 06:25:14;;;;;;;8.27;3.25;;;;;;;;;;6251191;22;20004;-94
2023/05/02 06:27:46;;;;;;;5.07;2.67;;;;;;;;;;6253358;22;20010;-95
2023/05/02 06:30:13;;;;;;;6.28;2.88;;;;;;;;;;6243530;22;20022;-96
2023/05/02 06:32:42;;;;;;;4.05;2.65;;;;;;;;;;6222345;23;20008;-95
2023/05/02 06:35:38;;;;;;;5.93;2.50;;;;;;;;;;6190871;22;20020;-95
2023/05/02 06:38:21;;;;;;;8.02;3.25;;;;;;;;;;6222587;23;20046;-96
2023/05/02 06:40:55;;;;;;;4.65;2.50;;;;;;;;;;6221844;23;20009;-96
2023/05/02 06:43:54;;;;;;;;;;;;;;;;;;;;;
2023/05/02 06:46:23;;;;;;;5.03;2.20;;;;;;;;;;6204081;23;20035;-96
2023/05/02 06:48:51;;;;;;;6.55;2.67;;;;;;;;;;6224755;23;20027;-96
2023/05/02 06:51:27;;;;;;;4.20;1.75;;;;;;;;;;6223231;23;20008;-94
2023/05/02 06:54:30;;;;;;;;;;;;;;;;;;;;;
2023/05/02 06:56:57;;;;;;;7.80;2.10;;;;;;;;;;6249237;23;20083;-94
2023/05/02 06:59:26;;;;;;;11.57;2.20;;;;;;;;;;6222032;23;20058;-95
2023/05/02 07:01:52;;;;;;;5.22;2.15;;;;;;;;;;6197193;23;20078;-95
2023/05/02 08:04:34;;;;;;;13.65;8.48;;;;;;;;;;6184464;23;20528;-94
2023/05/02 08:07:00;;;;;;;3.95;2.47;;;;;;;;;;6190632;23;20008;-94
2023/05/02 08:09:31;;;;;;;7.13;3.85;;;;;;;;;;6191260;23;20001;-96
2023/05/02 08:11:57;;;;;;;16.45;13.90;;;;;;;;;;6188257;23;20023;-94
2023/05/02 08:14:54;;;;;;;9.68;8.77;;;;;;;;;;6188801;23;20084;-93
2023/05/02 08:17:43;;;;;;;12.30;11.07;;;;;;;;;;6190446;23;20036;-94
2023/05/02 08:29:23;;;;;;;13.73;6.63;;;;;;;;;;6216553;23;20011;-93
2023/05/02 08:32:02;;;;;;;;;;;;;;;;;;;;;
2023/05/02 08:34:29;;;;;;;12.50;6.28;;;;;;;;;;6216945;23;20107;-94
2023/05/02 08:36:57;;;;;;;12.23;6.40;;;;;;;;;;6190109;23;20039;-93
2023/05/02 08:39:23;;;;;;;9.52;6.13;;;;;;;;;;6189886;23;20005;-93
2023/05/02 08:41:55;;;;;;;12.52;6.50;;;;;;;;;;6189698;23;20016;-93
2023/05/02 08:44:27;;;;;;;9.60;5.97;;;;;;;;;;6185797;23;20084;-95
2023/05/02 08:47:13;;;;;;;9.20;5.97;;;;;;;;;;6187768;23;20008;-95
2023/05/02 08:49:40;;;;;;;11.75;6.10;;;;;;;;;;6185063;23;20008;-93
2023/05/02 08:52:09;;;;;;;8.63;6.07;;;;;;;;;;6188497;23;20005;-94
2023/05/02 08:54:40;;;;;;;10.73;6.07;;;;;;;;;;6188800;23;20043;-93
2023/05/02 08:57:09;;;;;;;8.27;6.20;;;;;;;;;;6189614;23;20004;-94
2023/05/02 08:59:35;;;;;;;11.73;5.68;;;;;;;;;;6189835;23;20039;-94
2023/05/02 09:02:14;;;;;;;9.27;5.35;;;;;;;;;;6189649;23;20342;-91
2023/05/02 09:04:43;;;;;;;9.32;5.05;;;;;;;;;;6189214;23;20438;-93
2023/05/02 09:07:22;;;;;;;;;;;;;;;;;;;;;
2023/05/02 09:12:45;;;;;;;;;;;;;;;;;;;;;
2023/05/02 09:18:33;;;;;;;7.43;4.10;;;;;;;;;;6067062;23;20018;-95
2023/05/02 09:21:00;;;;;;;7.70;4.28;;;;;;;;;;6042500;23;20255;-94
2023/05/02 09:23:33;;;;;;;8.23;4.43;;;;;;;;;;6026933;23;20015;-94
2023/05/02 09:26:00;;;;;;;14.02;7.85;;;;;;;;;;6189738;23;20087;-93
2023/05/02 09:28:48;;;;;;;16.38;10.63;;;;;;;;;;6189488;23;20004;-93
2023/05/02 09:31:18;;;;;;;8.85;5.68;;;;;;;;;;6189381;23;20009;-93
2023/05/02 09:33:44;;;;;;;11.90;7.53;;;;;;;;;;6189114;23;20008;-93
2023/05/02 09:36:15;;;;;;;7.25;4.55;;;;;;;;;;6189393;23;20008;-93
2023/05/02 09:38:44;;;;;;;8.18;4.63;;;;;;;;;;6189660;23;20005;-93
2023/05/02 09:41:20;;;;;;;6.65;4.15;;;;;;;;;;6166471;23;20088;-93
2023/05/02 09:43:58;;;;;;;6.95;3.15;;;;;;;;;;6189744;23;20005;-92
2023/05/02 09:46:41;;;;;;;7.40;3.60;;;;;;;;;;6190873;23;20032;-96
2023/05/02 09:49:10;;;;;;;5.80;3.40;;;;;;;;;;6191754;23;20009;-94
2023/05/02 09:51:36;;;;;;;9.77;3.28;;;;;;;;;;6191733;23;20442;-94
2023/05/02 09:54:05;;;;;;;7.82;3.17;;;;;;;;;;6192110;23;20004;-93
2023/05/02 09:56:31;;;;;;;3.60;3.15;;;;;;;;;;6191673;23;20009;-94
2023/05/02 09:59:20;;;;;;;4.15;3.50;;;;;;;;;;6191480;23;20547;-94
2023/05/02 10:02:01;;;;;;;4.40;3.45;;;;;;;;;;6191246;23;20016;-95
2023/05/02 11:06:58;;;;;;;5.83;3.40;;;;;;;;;;6213568;23;20731;-93
2023/05/02 11:09:25;;;;;;;3.95;3.35;;;;;;;;;;6191243;23;20248;-94
2023/05/02 11:11:53;;;;;;;6.57;3.65;;;;;;;;;;6190756;23;20009;-93
2023/05/02 11:14:25;;;;;;;6.05;3.30;;;;;;;;;;6191211;23;20349;-94
2023/05/02 11:16:58;;;;;;;4.27;3.47;;;;;;;;;;6190751;23;20087;-92
2023/05/02 11:19:25;;;;;;;5.00;3.50;;;;;;;;;;6190712;23;20236;-94
2023/05/02 11:22:14;;;;;;;4.60;3.75;;;;;;;;;;6190504;23;20099;-95
2023/05/02 11:27:46;;;;;;;4.20;3.70;;;;;;;;;;6269692;22;20058;-94
2023/05/02 11:30:35;;;;;;;7.28;3.80;;;;;;;;;;6249557;22;20062;-94
2023/05/02 11:36:12;;;;;;;6.15;3.53;;;;;;;;;;6265449;22;20004;-95
2023/05/02 11:38:38;;;;;;;5.57;3.90;;;;;;;;;;6250768;22;20015;-93
2023/05/02 11:41:10;;;;;;;6.32;4.20;;;;;;;;;;6251028;22;20012;-95
2023/05/02 11:43:37;;;;;;;6.07;4.20;;;;;;;;;;6244674;22;20443;-94
2023/05/02 11:46:04;;;;;;;6.55;4.10;;;;;;;;;;6252005;22;20306;-93
2023/05/02 11:48:31;;;;;;;7.28;4.63;;;;;;;;;;6255108;22;20007;-94
2023/05/02 11:51:00;;;;;;;5.68;4.03;;;;;;;;;;6253363;22;20007;-93
2023/05/02 11:53:30;;;;;;;5.22;4.38;;;;;;;;;;6251569;22;20027;-93
2023/05/02 11:55:57;;;;;;;5.82;4.15;;;;;;;;;;6251466;22;20011;-94
2023/05/02 11:58:45;;;;;;;6.72;4.47;;;;;;;;;;6254484;22;20011;-94
2023/05/02 12:01:40;;;;;;;5.07;4.28;;;;;;;;;;6249436;22;20003;-93
2023/05/02 14:04:51;;;;;;;;;;;;;;;;;;;;;
2023/05/02 14:07:18;;;;;;;5.45;3.95;;;;;;;;;;6276692;22;20388;-94
2023/05/02 14:09:54;;;;;;;5.60;3.83;;;;;;;;;;6249726;22;20451;-95
2023/05/02 14:12:20;;;;;;;5.45;3.80;;;;;;;;;;6250682;22;20003;-91
2023/05/02 14:14:54;;;;;;;5.47;3.10;;;;;;;;;;6250033;22;20003;-90
2023/05/02 14:17:23;;;;;;;7.30;3.17;;;;;;;;;;6250798;22;20004;-94
2023/05/02 14:19:50;;;;;;;5.80;3.30;;;;;;;;;;6249674;22;20150;-93
2023/05/02 14:28:22;;;;;;;4.47;3.40;;;;;;;;;;6277854;22;20023;-94
2023/05/02 14:31:08;;;;;;;5.97;3.63;;;;;;;;;;6250878;22;20027;-94
2023/05/02 14:33:37;;;;;;;5.63;3.70;;;;;;;;;;6238652;22;20310;-90
2023/05/02 14:36:03;;;;;;;5.50;3.58;;;;;;;;;;6251684;22;20015;-91
2023/05/02 14:38:29;;;;;;;4.70;3.50;;;;;;;;;;6252092;22;20007;-92
2023/05/02 14:40:55;;;;;;;6.18;3.55;;;;;;;;;;6251478;22;20417;-91
2023/05/02 14:43:21;;;;;;;4.65;3.72;;;;;;;;;;6251906;22;20007;-91
2023/05/02 14:45:51;;;;;;;4.22;3.55;;;;;;;;;;6251871;22;20006;-94
2023/05/02 14:48:17;;;;;;;4.80;3.63;;;;;;;;;;6251388;22;20014;-92
2023/05/02 14:50:43;;;;;;;6.65;3.65;;;;;;;;;;6252089;22;20494;-91
2023/05/02 14:53:10;;;;;;;5.47;3.65;;;;;;;;;;6252724;22;20007;-91
2023/05/02 14:55:37;;;;;;;5.05;3.90;;;;;;;;;;6252272;22;20004;-93
2023/05/02 14:58:19;;;;;;;7.60;4.22;;;;;;;;;;6246236;23;20042;-95
2023/05/02 15:00:45;;;;;;;6.18;4.55;;;;;;;;;;6248534;23;20495;-95
2023/05/02 15:14:51;;;;;;;6.93;3.70;;;;;;;;;;6248149;23;20445;-94
2023/05/02 15:17:30;;;;;;;4.00;3.22;;;;;;;;;;6246963;23;20008;-93
2023/05/02 15:20:14;;;;;;;4.18;2.92;;;;;;;;;;6255397;23;20011;-95
2023/05/02 15:22:43;;;;;;;5.40;2.88;;;;;;;;;;6250071;23;20012;-94
2023/05/02 15:25:09;;;;;;;4.22;3.28;;;;;;;;;;6244662;23;20486;-94
2023/05/02 15:27:39;;;;;;;5.90;2.90;;;;;;;;;;6245484;23;20004;-93
2023/05/02 15:30:21;;;;;;;;;;;;;;;;;;;;;
2023/05/02 15:32:50;;;;;;;4.10;3.33;;;;;;;;;;6247395;23;20079;-93
2023/05/02 15:35:55;;;;;;;7.10;3.47;;;;;;;;;;6245830;23;20035;-92
2023/05/02 15:38:43;;;;;;;4.35;3.95;;;;;;;;;;6159864;23;20400;-94
2023/05/02 15:41:18;;;;;;;6.38;4.00;;;;;;;;;;6181592;23;20036;-93
2023/05/02 15:47:00;;;;;;;6.05;4.22;;;;;;;;;;6259361;22;20073;-95
2023/05/02 15:49:38;;;;;;;5.93;4.65;;;;;;;;;;6251514;22;20003;-96
2023/05/02 15:52:08;;;;;;;8.07;5.32;;;;;;;;;;6255338;22;20023;-93
2023/05/02 15:54:34;;;;;;;7.57;4.93;;;;;;;;;;6257221;22;20058;-93
2023/05/02 15:57:03;;;;;;;5.82;5.10;;;;;;;;;;6250288;22;20095;-94
2023/05/02 15:59:39;;;;;;;5.63;5.07;;;;;;;;;;6251375;22;20003;-96
2023/05/02 16:05:22;;;;;;;7.68;5.75;;;;;;;;;;6154080;23;20016;-95
2023/05/02 16:07:51;;;;;;;9.75;5.50;;;;;;;;;;6130438;23;20458;-94
2023/05/02 18:16:51;;;;;;;14.20;10.38;;;;;;;;;;5107524;27;20426;-93
2023/05/02 18:37:11;;;;;;;10.63;9.32;;;;;;;;;;5053350;27;1544391;-96
2023/05/02 18:39:37;;;;;;;11.00;9.40;;;;;;;;;;5070284;27;20036;-96
2023/05/02 18:42:04;;;;;;;10.88;9.75;;;;;;;;;;5070468;27;20020;-92
2023/05/02 18:44:30;;;;;;;10.70;9.27;;;;;;;;;;5069981;27;20024;-96
2023/05/02 18:46:57;;;;;;;10.90;9.35;;;;;;;;;;5070435;27;20024;-96
2023/05/02 18:49:24;;;;;;;11.68;9.70;;;;;;;;;;5069306;28;20029;-96
2023/05/02 18:51:52;;;;;;;12.55;9.77;;;;;;;;;;5060022;27;20028;-93
2023/05/02 18:54:18;;;;;;;12.25;10.32;;;;;;;;;;5050087;28;20029;-95
2023/05/02 18:56:45;;;;;;;12.63;10.32;;;;;;;;;;5049907;28;20037;-93
2023/05/02 18:59:11;;;;;;;12.15;10.90;;;;;;;;;;5049744;28;20021;-94
2023/05/02 19:01:37;;;;;;;13.10;10.40;;;;;;;;;;5056824;28;20466;-93
2023/05/02 19:04:03;;;;;;;11.13;9.82;;;;;;;;;;5052116;28;20059;-92
2023/05/02 19:06:30;;;;;;;12.07;10.70;;;;;;;;;;5069595;27;20025;-93
2023/05/02 19:08:57;;;;;;;13.73;10.82;;;;;;;;;;5059046;27;20017;-93
2023/05/02 19:11:23;;;;;;;15.38;10.70;;;;;;;;;;5068260;28;20028;-94
2023/05/02 19:13:49;;;;;;;11.98;10.77;;;;;;;;;;5067242;28;20017;-94
2023/05/02 19:16:16;;;;;;;12.18;10.73;;;;;;;;;;5064551;28;20092;-93
2023/05/02 19:18:44;;;;;;;14.65;11.57;;;;;;;;;;5069631;27;20025;-93
2023/05/02 19:21:12;;;;;;;15.43;10.95;;;;;;;;;;5069412;28;20029;-95
2023/05/02 19:23:40;;;;;;;13.68;12.15;;;;;;;;;;5069126;27;20031;-92
2023/05/02 19:26:09;;;;;;;13.20;10.98;;;;;;;;;;5076982;27;20005;-94
2023/05/02 19:28:38;;;;;;;12.00;10.55;;;;;;;;;;5076733;28;20032;-93
2023/05/02 19:31:11;;;;;;;12.35;11.15;;;;;;;;;;5068011;28;20111;-93
2023/05/02 19:33:37;;;;;;;14.40;11.30;;;;;;;;;;5069219;28;20035;-94
2023/05/02 19:36:07;;;;;;;14.40;12.10;;;;;;;;;;5067131;28;20143;-93
2023/05/02 19:38:33;;;;;;;13.63;12.20;;;;;;;;;;5055326;28;20063;-93
2023/05/02 19:41:00;;;;;;;13.52;10.95;;;;;;;;;;5055636;28;20024;-93
2023/05/02 19:43:30;;;;;;;12.77;11.35;;;;;;;;;;5055539;28;20047;-92
2023/05/02 19:45:56;;;;;;;13.40;11.85;;;;;;;;;;5048857;28;20062;-95
2023/05/02 19:48:22;;;;;;;12.13;10.93;;;;;;;;;;5038794;28;20025;-94
2023/05/02 19:50:48;;;;;;;13.32;11.00;;;;;;;;;;5056368;28;20077;-94
2023/05/02 19:53:15;;;;;;;13.75;11.23;;;;;;;;;;5055801;27;20111;-94
2023/05/02 19:55:41;;;;;;;14.55;11.50;;;;;;;;;;5055381;28;20045;-95
2023/05/02 19:58:07;;;;;;;13.25;11.38;;;;;;;;;;5044968;28;20028;-93
2023/05/02 20:00:33;;;;;;;13.18;11.15;;;;;;;;;;5037436;28;20401;-91
2023/05/02 20:02:59;;;;;;;11.27;10.00;;;;;;;;;;5052255;28;20021;-94
2023/05/02 20:05:25;;;;;;;12.00;9.48;;;;;;;;;;5036310;28;20036;-92
2023/05/02 20:07:51;;;;;;;10.80;9.07;;;;;;;;;;5042783;28;20021;-93
2023/05/02 20:10:17;;;;;;;9.82;8.82;;;;;;;;;;5035621;28;20370;-96
2023/05/02 20:12:45;;;;;;;12.05;9.35;;;;;;;;;;5035248;28;20132;-93
2023/05/02 20:15:12;;;;;;;10.35;8.65;;;;;;;;;;5035380;28;20033;-94
2023/05/02 20:17:39;;;;;;;8.57;7.28;;;;;;;;;;5036722;28;20074;-95
2023/05/02 20:20:07;;;;;;;9.50;7.80;;;;;;;;;;5055475;28;20030;-95
2023/05/02 20:22:34;;;;;;;8.77;7.43;;;;;;;;;;5055422;28;20037;-94
2023/05/02 20:25:00;;;;;;;8.90;7.80;;;;;;;;;;5055507;28;20046;-95
2023/05/02 20:27:26;;;;;;;8.85;7.88;;;;;;;;;;5048768;28;20025;-96
2023/05/02 20:29:58;;;;;;;10.73;8.45;;;;;;;;;;5035995;28;20029;-95
2023/05/02 20:32:25;;;;;;;10.57;9.27;;;;;;;;;;5035485;28;20045;-94
2023/05/02 20:34:51;;;;;;;8.40;7.60;;;;;;;;;;5040730;28;20058;-93
2023/05/02 20:37:18;;;;;;;9.15;7.47;;;;;;;;;;5054242;28;20049;-95
2023/05/02 20:39:44;;;;;;;9.45;8.45;;;;;;;;;;5051937;28;20073;-95
2023/05/02 20:42:10;;;;;;;9.95;7.35;;;;;;;;;;5051806;28;20025;-96
2023/05/02 20:44:36;;;;;;;7.97;7.18;;;;;;;;;;5046396;28;20026;-96
2023/05/02 20:47:02;;;;;;;9.02;7.95;;;;;;;;;;5031322;28;20029;-95
2023/05/02 20:49:32;;;;;;;8.05;6.95;;;;;;;;;;5034095;28;20021;-95
2023/05/02 20:52:02;;;;;;;7.90;7.10;;;;;;;;;;5051335;28;20029;-96
2023/05/02 20:54:29;;;;;;;7.82;6.68;;;;;;;;;;5031345;28;20025;-94
2023/05/02 20:56:55;;;;;;;7.78;6.70;;;;;;;;;;5031295;28;20033;-94
2023/05/02 20:59:21;;;;;;;7.22;6.50;;;;;;;;;;5031266;28;20026;-95
2023/05/02 21:01:47;;;;;;;7.45;6.30;;;;;;;;;;5031415;28;20025;-93
2023/05/02 21:04:13;;;;;;;6.53;5.75;;;;;;;;;;5031487;28;20461;-95
2023/05/02 21:06:43;;;;;;;6.68;5.97;;;;;;;;;;5031416;28;20021;-94
2023/05/02 21:09:09;;;;;;;7.22;5.63;;;;;;;;;;5031530;28;20036;-94
2023/05/02 21:11:38;;;;;;;7.20;5.93;;;;;;;;;;5033098;28;20035;-95
2023/05/02 21:14:04;;;;;;;6.30;5.15;;;;;;;;;;5037262;28;20033;-95
2023/05/02 21:16:30;;;;;;;7.18;5.70;;;;;;;;;;5030948;28;20041;-95
2023/05/02 21:18:56;;;;;;;7.18;6.40;;;;;;;;;;5032004;28;20026;-95
2023/05/02 21:21:22;;;;;;;6.40;5.38;;;;;;;;;;5031339;28;20037;-94
2023/05/02 21:23:48;;;;;;;7.10;5.95;;;;;;;;;;5031899;28;20049;-94
2023/05/02 21:26:15;;;;;;;7.32;6.47;;;;;;;;;;5031868;28;20461;-94
2023/05/02 21:28:41;;;;;;;5.82;4.82;;;;;;;;;;5031771;28;20078;-95
2023/05/02 21:31:07;;;;;;;7.10;5.88;;;;;;;;;;5031258;28;20049;-94
2023/05/02 21:33:33;;;;;;;7.22;6.43;;;;;;;;;;5030993;28;20040;-95
2023/05/02 21:36:00;;;;;;;9.45;6.68;;;;;;;;;;5030281;28;20053;-95
2023/05/02 21:38:26;;;;;;;5.93;5.32;;;;;;;;;;5030905;28;20108;-94
2023/05/02 21:41:07;;;;;;;6.50;5.80;;;;;;;;;;5036367;28;20026;-96
2023/05/02 21:43:43;;;;;;;6.00;5.38;;;;;;;;;;5059666;28;20032;-94
2023/05/02 21:46:22;;;;;;;10.43;5.65;;;;;;;;;;5047151;28;20029;-96
2023/05/02 21:48:53;;;;;;;5.93;5.30;;;;;;;;;;5034948;28;20045;-96
2023/05/02 21:51:33;;;;;;;6.13;4.88;;;;;;;;;;5021584;28;20041;-96
2023/05/02 21:53:59;;;;;;;7.18;4.80;;;;;;;;;;5044072;28;20036;-96
2023/05/02 21:56:25;;;;;;;6.28;5.25;;;;;;;;;;5051838;28;20068;-96
2023/05/02 21:58:51;;;;;;;6.03;4.88;;;;;;;;;;5050481;28;20021;-95
2023/05/02 22:01:18;;;;;;;7.20;5.60;;;;;;;;;;5050589;28;20025;-94
2023/05/02 22:03:44;;;;;;;6.28;4.95;;;;;;;;;;5039678;28;20521;-96
2023/05/02 22:06:10;;;;;;;5.68;5.07;;;;;;;;;;5032138;28;20037;-95
2023/05/02 22:08:36;;;;;;;5.72;5.10;;;;;;;;;;5045711;28;20028;-96
2023/05/02 22:11:09;;;;;;;6.93;5.60;;;;;;;;;;5050888;28;20037;-96
2023/05/02 22:13:35;;;;;;;6.03;4.90;;;;;;;;;;5050675;28;20491;-95
2023/05/02 22:16:02;;;;;;;8.27;6.65;;;;;;;;;;5050161;28;20489;-95
2023/05/02 22:18:28;;;;;;;7.40;6.45;;;;;;;;;;5042672;28;20028;-95
2023/05/02 22:20:57;;;;;;;7.90;7.03;;;;;;;;;;5030325;28;20036;-95
2023/05/02 22:23:23;;;;;;;10.57;8.60;;;;;;;;;;5030640;28;20363;-96
2023/05/02 22:25:49;;;;;;;12.15;9.07;;;;;;;;;;5030544;28;20053;-95
2023/05/02 22:28:16;;;;;;;8.75;7.38;;;;;;;;;;5030441;28;20029;-94
2023/05/02 22:30:42;;;;;;;10.07;8.48;;;;;;;;;;5038650;28;20555;-96
2023/05/02 22:33:08;;;;;;;10.00;7.55;;;;;;;;;;5039777;28;20066;-93
2023/05/02 22:35:38;;;;;;;9.48;7.60;;;;;;;;;;5029349;28;20061;-94
2023/05/02 22:38:04;;;;;;;10.68;7.63;;;;;;;;;;5036130;28;20033;-95
2023/05/02 22:40:31;;;;;;;8.90;7.70;;;;;;;;;;5044015;28;20033;-94
2023/05/02 22:42:57;;;;;;;7.22;6.00;;;;;;;;;;5050489;28;20024;-96
2023/05/02 22:45:25;;;;;;;7.72;6.90;;;;;;;;;;5037817;28;20029;-96
2023/05/02 22:47:52;;;;;;;10.18;6.85;;;;;;;;;;5031217;28;20025;-94
2023/05/02 22:50:18;;;;;;;8.65;6.97;;;;;;;;;;5033833;28;20030;-94
2023/05/02 22:52:47;;;;;;;8.52;6.70;;;;;;;;;;5043924;28;20041;-95
2023/05/02 22:55:14;;;;;;;7.95;6.40;;;;;;;;;;5031904;28;20069;-95
2023/05/02 22:57:41;;;;;;;9.20;7.80;;;;;;;;;;5030155;28;20418;-96
2023/05/02 23:00:08;;;;;;;8.23;7.35;;;;;;;;;;5030000;28;20026;-96
2023/05/02 23:02:34;;;;;;;7.45;6.60;;;;;;;;;;5030379;28;20537;-96
2023/05/02 23:05:01;;;;;;;8.55;6.72;;;;;;;;;;5030539;28;20025;-96
2023/05/02 23:07:27;;;;;;;8.27;6.32;;;;;;;;;;5030162;28;20029;-96
2023/05/02 23:09:53;;;;;;;7.47;5.80;;;;;;;;;;5042688;28;20029;-96
2023/05/02 23:12:19;;;;;;;6.47;5.78;;;;;;;;;;5051960;28;20057;-96
2023/05/02 23:14:46;;;;;;;9.02;6.55;;;;;;;;;;5053391;28;20354;-96
2023/05/02 23:17:12;;;;;;;6.60;5.90;;;;;;;;;;5054668;28;20029;-96
2023/05/02 23:19:38;;;;;;;7.25;5.90;;;;;;;;;;5054277;28;20379;-96
2023/05/02 23:22:04;;;;;;;6.75;5.57;;;;;;;;;;5054675;28;20021;-96
2023/05/02 23:24:31;;;;;;;7.07;5.35;;;;;;;;;;5039258;28;20077;-96
2023/05/02 23:26:57;;;;;;;6.55;5.47;;;;;;;;;;5035342;28;20461;-96
2023/05/02 23:29:23;;;;;;;8.60;6.60;;;;;;;;;;5034341;28;20050;-95
2023/05/02 23:31:52;;;;;;;6.78;5.70;;;;;;;;;;5034146;28;20032;-96
2023/05/02 23:34:18;;;;;;;7.80;5.80;;;;;;;;;;5034083;28;20022;-96
2023/05/02 23:36:45;;;;;;;7.55;5.53;;;;;;;;;;5034028;28;20132;-96
2023/05/02 23:39:11;;;;;;;6.30;5.53;;;;;;;;;;5033995;28;20058;-96
2023/05/02 23:41:37;;;;;;;7.88;6.05;;;;;;;;;;5034338;28;20026;-96
2023/05/02 23:44:04;;;;;;;5.78;5.18;;;;;;;;;;5034510;28;20022;-96
2023/05/02 23:46:30;;;;;;;7.90;5.25;;;;;;;;;;5034755;28;20018;-96
2023/05/02 23:48:56;;;;;;;7.65;5.15;;;;;;;;;;5050458;28;20033;-96
2023/05/02 23:51:22;;;;;;;5.90;4.93;;;;;;;;;;5033453;28;20029;-94
2023/05/02 23:53:51;;;;;;;6.13;5.50;;;;;;;;;;5048378;28;20111;-95
2023/05/02 23:56:17;;;;;;;8.00;5.45;;;;;;;;;;5064984;28;20098;-96
2023/05/02 23:58:43;;;;;;;7.55;5.80;;;;;;;;;;5059161;28;20025;-96
